Time,TemperatureF,DewpointF,PressureIn,WindDirection,WindDirectionDegrees,WindSpeedMPH,WindSpeedGustMPH,Humidity,HourlyPrecipIn,Conditions,Clouds,dailyrainin,SoftwareType,DateUTC
2013-09-21 00:00:00,61.5,53.6,30.14,West,264,0.0,1.0,75,0.00,,,0.00,meteohub,2013-09-21 05:00:00,
2013-09-21 00:05:00,61.7,52.9,30.14,West,265,0.0,0.0,73,0.00,,,0.00,meteohub,2013-09-21 05:05:00,
2013-09-21 00:10:00,61.5,52.7,30.14,West,264,0.0,1.0,73,0.00,,,0.00,meteohub,2013-09-21 05:10:00,
2013-09-21 00:15:00,61.3,52.7,30.14,West,264,0.0,1.0,73,0.00,,,0.00,meteohub,2013-09-21 05:15:00,
2013-09-21 00:20:00,61.2,53.2,30.14,West,265,0.0,1.0,75,0.00,,,0.00,meteohub,2013-09-21 05:20:00,
2013-09-21 00:25:00,61.0,52.3,30.15,West,264,0.0,0.0,73,0.00,,,0.00,meteohub,2013-09-21 05:25:00,
2013-09-21 00:30:00,61.2,52.5,30.15,West,264,0.0,1.0,73,0.00,,,0.00,meteohub,2013-09-21 05:30:00,
2013-09-21 00:35:00,61.0,52.7,30.15,West,264,0.0,1.0,74,0.00,,,0.00,meteohub,2013-09-21 05:35:00,
2013-09-21 00:40:00,61.0,53.4,30.15,West,264,0.0,0.0,76,0.00,,,0.00,meteohub,2013-09-21 05:40:00,
2013-09-21 00:45:00,60.6,52.7,30.15,West,264,0.0,0.0,75,0.00,,,0.00,meteohub,2013-09-21 05:45:00,
2013-09-21 00:50:00,60.8,52.5,30.15,West,264,0.0,0.0,74,0.00,,,0.00,meteohub,2013-09-21 05:50:00,
2013-09-21 00:56:00,61.0,52.7,30.15,West,264,0.0,0.0,74,0.00,,,0.00,meteohub,2013-09-21 05:56:00,
2013-09-21 01:01:00,61.0,53.1,30.15,West,265,0.0,1.0,75,0.00,,,0.00,meteohub,2013-09-21 06:01:00,
2013-09-21 01:06:00,61.0,53.1,30.15,West,264,0.0,1.0,75,0.00,,,0.00,meteohub,2013-09-21 06:06:00,
2013-09-21 01:11:00,60.6,53.1,30.15,West,264,0.0,1.0,76,0.00,,,0.00,meteohub,2013-09-21 06:11:00,
2013-09-21 01:16:00,60.6,52.7,30.15,West,264,0.0,0.0,75,0.00,,,0.00,meteohub,2013-09-21 06:16:00,
2013-09-21 01:21:00,60.4,52.5,30.15,West,264,1.0,0.0,75,0.00,,,0.00,meteohub,2013-09-21 06:21:00,
2013-09-21 01:26:00,60.4,52.5,30.15,West,265,1.0,1.0,75,0.00,,,0.00,meteohub,2013-09-21 06:26:00,
2013-09-21 01:31:00,60.4,52.9,30.15,West,265,0.0,1.0,76,0.00,,,0.00,meteohub,2013-09-21 06:31:00,
2013-09-21 01:36:00,60.4,52.9,30.15,West,265,0.0,1.0,76,0.00,,,0.00,meteohub,2013-09-21 06:36:00,
2013-09-21 01:41:00,60.4,52.9,30.15,West,265,0.0,1.0,76,0.00,,,0.00,meteohub,2013-09-21 06:41:00,
2013-09-21 01:46:00,60.4,53.2,30.15,West,266,0.0,0.0,77,0.00,,,0.00,meteohub,2013-09-21 06:46:00,
2013-09-21 01:51:00,60.3,53.1,30.15,West,266,0.0,0.0,77,0.00,,,0.00,meteohub,2013-09-21 06:51:00,
2013-09-21 01:56:00,59.9,53.1,30.15,West,266,0.0,0.0,78,0.00,,,0.00,meteohub,2013-09-21 06:56:00,
2013-09-21 02:01:00,59.5,53.1,30.15,West,266,0.0,0.0,79,0.00,,,0.00,meteohub,2013-09-21 07:01:00,
2013-09-21 02:07:00,59.5,53.1,30.15,West,266,0.0,0.0,79,0.00,,,0.00,meteohub,2013-09-21 07:07:00,
2013-09-21 02:12:00,59.5,52.7,30.15,West,266,0.0,0.0,78,0.00,,,0.00,meteohub,2013-09-21 07:12:00,
2013-09-21 02:17:00,59.7,52.9,30.15,NW,312,1.0,1.0,78,0.00,,,0.00,meteohub,2013-09-21 07:17:00,
2013-09-21 02:22:00,59.7,53.2,30.15,NNW,332,1.0,1.0,79,0.00,,,0.00,meteohub,2013-09-21 07:22:00,
2013-09-21 02:27:00,59.7,53.2,30.15,North,355,0.0,1.0,79,0.00,,,0.00,meteohub,2013-09-21 07:27:00,
2013-09-21 02:32:00,59.5,53.1,30.15,North,356,0.0,1.0,79,0.00,,,0.00,meteohub,2013-09-21 07:32:00,
2013-09-21 02:37:00,59.4,53.2,30.15,North,356,0.0,1.0,80,0.00,,,0.00,meteohub,2013-09-21 07:37:00,
2013-09-21 02:42:00,59.2,52.7,30.15,North,354,0.0,1.0,79,0.00,,,0.00,meteohub,2013-09-21 07:42:00,
2013-09-21 02:47:00,59.2,53.4,30.14,NW,309,0.0,1.0,81,0.00,,,0.00,meteohub,2013-09-21 07:47:00,
2013-09-21 02:52:00,59.0,52.9,30.14,NW,311,0.0,1.0,80,0.00,,,0.00,meteohub,2013-09-21 07:52:00,
2013-09-21 02:57:00,59.2,53.1,30.14,NW,311,0.0,1.0,80,0.00,,,0.00,meteohub,2013-09-21 07:57:00,
2013-09-21 03:02:00,59.0,52.9,30.14,NW,311,0.0,0.0,80,0.00,,,0.00,meteohub,2013-09-21 08:02:00,
2013-09-21 03:07:00,58.8,53.1,30.14,NW,309,0.0,0.0,81,0.00,,,0.00,meteohub,2013-09-21 08:07:00,
2013-09-21 03:12:00,58.6,53.8,30.14,NW,310,0.0,0.0,84,0.00,,,0.00,meteohub,2013-09-21 08:12:00,
2013-09-21 03:17:00,58.5,53.6,30.14,NW,311,0.0,0.0,84,0.00,,,0.00,meteohub,2013-09-21 08:17:00,
2013-09-21 03:22:00,58.5,53.6,30.14,NW,311,0.0,0.0,84,0.00,,,0.00,meteohub,2013-09-21 08:22:00,
2013-09-21 03:27:00,58.5,53.6,30.14,NW,311,0.0,0.0,84,0.00,,,0.00,meteohub,2013-09-21 08:27:00,
2013-09-21 03:32:00,58.5,54.0,30.14,NW,311,0.0,0.0,85,0.00,,,0.00,meteohub,2013-09-21 08:32:00,
2013-09-21 03:37:00,58.3,53.8,30.14,NW,311,0.0,0.0,85,0.00,,,0.00,meteohub,2013-09-21 08:37:00,
2013-09-21 03:42:00,57.9,53.8,30.14,NW,311,0.0,0.0,86,0.00,,,0.00,meteohub,2013-09-21 08:42:00,
2013-09-21 03:47:00,57.7,53.6,30.14,NW,311,0.0,0.0,86,0.00,,,0.00,meteohub,2013-09-21 08:47:00,
2013-09-21 03:52:00,57.9,53.1,30.14,NW,311,0.0,0.0,84,0.00,,,0.00,meteohub,2013-09-21 08:52:00,
2013-09-21 03:57:00,58.3,53.8,30.14,NW,311,0.0,0.0,85,0.00,,,0.00,meteohub,2013-09-21 08:57:00,
2013-09-21 04:02:00,58.3,53.8,30.14,NW,311,0.0,0.0,85,0.00,,,0.00,meteohub,2013-09-21 09:02:00,
2013-09-21 04:07:00,58.3,53.8,30.14,NW,311,0.0,0.0,85,0.00,,,0.00,meteohub,2013-09-21 09:07:00,
2013-09-21 04:12:00,57.9,53.4,30.14,NW,311,0.0,0.0,85,0.00,,,0.00,meteohub,2013-09-21 09:12:00,
2013-09-21 04:17:00,57.7,53.2,30.14,NW,311,0.0,0.0,85,0.00,,,0.00,meteohub,2013-09-21 09:17:00,
2013-09-21 04:22:00,57.7,53.2,30.14,NW,311,0.0,0.0,85,0.00,,,0.00,meteohub,2013-09-21 09:22:00,
2013-09-21 04:27:00,57.7,53.2,30.14,NW,311,0.0,0.0,85,0.00,,,0.00,meteohub,2013-09-21 09:27:00,
2013-09-21 04:32:00,57.6,53.1,30.14,NW,311,0.0,0.0,85,0.00,,,0.00,meteohub,2013-09-21 09:32:00,
2013-09-21 04:37:00,57.4,53.2,30.14,West,274,0.0,0.0,86,0.00,,,0.00,meteohub,2013-09-21 09:37:00,
2013-09-21 04:42:00,57.4,53.2,30.14,West,277,0.0,1.0,86,0.00,,,0.00,meteohub,2013-09-21 09:42:00,
2013-09-21 04:47:00,57.0,52.9,30.14,West,277,1.0,1.0,86,0.00,,,0.00,meteohub,2013-09-21 09:47:00,
2013-09-21 04:52:00,56.7,52.9,30.14,West,277,0.0,1.0,87,0.00,,,0.00,meteohub,2013-09-21 09:52:00,
2013-09-21 04:57:00,56.7,52.9,30.14,West,277,0.0,1.0,87,0.00,,,0.00,meteohub,2013-09-21 09:57:00,
2013-09-21 05:02:00,56.5,52.7,30.15,West,276,1.0,1.0,87,0.00,,,0.00,meteohub,2013-09-21 10:02:00,
2013-09-21 05:07:00,56.7,52.9,30.15,North,355,1.0,1.0,87,0.00,,,0.00,meteohub,2013-09-21 10:07:00,
2013-09-21 05:12:00,56.8,52.7,30.15,North,356,1.0,1.0,86,0.00,,,0.00,meteohub,2013-09-21 10:12:00,
2013-09-21 05:17:00,57.0,52.5,30.15,North,357,1.0,1.0,85,0.00,,,0.00,meteohub,2013-09-21 10:17:00,
2013-09-21 05:22:00,57.2,52.3,30.15,North,356,1.0,1.0,84,0.00,,,0.00,meteohub,2013-09-21 10:22:00,
2013-09-21 05:27:00,57.4,52.3,30.15,NNE,20,1.0,1.0,83,0.00,,,0.00,meteohub,2013-09-21 10:27:00,
2013-09-21 05:32:00,57.4,52.5,30.15,NNE,20,0.0,2.0,84,0.00,,,0.00,meteohub,2013-09-21 10:32:00,
2013-09-21 05:37:00,57.0,52.0,30.15,NNE,20,0.0,2.0,83,0.00,,,0.00,meteohub,2013-09-21 10:37:00,
2013-09-21 05:43:00,57.0,52.2,30.15,NNE,20,0.0,2.0,84,0.00,,,0.00,meteohub,2013-09-21 10:43:00,
2013-09-21 05:48:00,57.0,52.2,30.15,NNE,20,0.0,1.0,84,0.00,,,0.00,meteohub,2013-09-21 10:48:00,
2013-09-21 05:53:00,57.0,52.2,30.16,NNE,20,0.0,0.0,84,0.00,,,0.00,meteohub,2013-09-21 10:53:00,
2013-09-21 05:58:00,57.0,52.2,30.16,NNE,20,0.0,0.0,84,0.00,,,0.00,meteohub,2013-09-21 10:58:00,
2013-09-21 06:03:00,56.8,52.3,30.16,NNE,20,0.0,0.0,85,0.00,,,0.00,meteohub,2013-09-21 11:03:00,
2013-09-21 06:08:00,56.7,52.5,30.16,NNE,20,0.0,0.0,86,0.00,,,0.00,meteohub,2013-09-21 11:08:00,
2013-09-21 06:13:00,56.7,52.2,30.16,NNE,20,0.0,0.0,85,0.00,,,0.00,meteohub,2013-09-21 11:13:00,
2013-09-21 06:18:00,56.8,52.3,30.15,NNE,20,0.0,0.0,85,0.00,,,0.00,meteohub,2013-09-21 11:18:00,
2013-09-21 06:23:00,56.8,52.3,30.15,NNE,20,0.0,0.0,85,0.00,,,0.00,meteohub,2013-09-21 11:23:00,
2013-09-21 06:28:00,56.7,52.2,30.15,ENE,60,1.0,0.0,85,0.00,,,0.00,meteohub,2013-09-21 11:28:00,
2013-09-21 06:33:00,56.7,52.5,30.16,East,81,0.0,2.0,86,0.00,,,0.00,meteohub,2013-09-21 11:33:00,
2013-09-21 06:38:00,56.5,52.7,30.15,ESE,103,1.0,2.0,87,0.00,,,0.00,meteohub,2013-09-21 11:38:00,
2013-09-21 06:43:00,56.1,52.7,30.16,ESE,103,0.0,2.0,88,0.00,,,0.00,meteohub,2013-09-21 11:43:00,
2013-09-21 06:48:00,55.9,52.7,30.16,ESE,108,1.0,2.0,89,0.00,,,0.00,meteohub,2013-09-21 11:48:00,
2013-09-21 06:53:00,55.8,52.5,30.16,ESE,115,1.0,2.0,89,0.00,,,0.00,meteohub,2013-09-21 11:53:00,
2013-09-21 06:58:00,55.6,52.7,30.16,ESE,117,0.0,2.0,90,0.00,,,0.00,meteohub,2013-09-21 11:58:00,
2013-09-21 07:03:00,55.6,52.7,30.16,ESE,121,1.0,2.0,90,0.00,,,0.00,meteohub,2013-09-21 12:03:00,
2013-09-21 07:08:00,55.2,52.3,30.16,SE,145,0.0,2.0,90,0.00,,,0.00,meteohub,2013-09-21 12:08:00,
2013-09-21 07:13:00,55.2,52.3,30.16,SE,146,0.0,1.0,90,0.00,,,0.00,meteohub,2013-09-21 12:13:00,
2013-09-21 07:18:00,55.2,52.3,30.16,SE,142,0.0,1.0,90,0.00,,,0.00,meteohub,2013-09-21 12:18:00,
2013-09-21 07:23:00,55.0,52.5,30.16,ESE,116,1.0,0.0,91,0.00,,,0.00,meteohub,2013-09-21 12:23:00,
2013-09-21 07:28:00,55.2,52.7,30.16,ESE,121,1.0,0.0,91,0.00,,,0.00,meteohub,2013-09-21 12:28:00,
2013-09-21 07:33:00,55.4,52.9,30.17,SSE,149,0.0,2.0,91,0.00,,,0.00,meteohub,2013-09-21 12:33:00,
2013-09-21 07:38:00,55.8,53.2,30.17,SE,127,0.0,2.0,91,0.00,,,0.00,meteohub,2013-09-21 12:38:00,
2013-09-21 07:44:00,55.9,53.1,30.17,SE,124,0.0,1.0,90,0.00,,,0.00,meteohub,2013-09-21 12:44:00,
2013-09-21 07:49:00,56.5,53.6,30.17,SE,124,0.0,2.0,90,0.00,,,0.00,meteohub,2013-09-21 12:49:00,
2013-09-21 07:54:00,57.2,54.0,30.17,SE,142,0.0,2.0,89,0.00,,,0.00,meteohub,2013-09-21 12:54:00,
2013-09-21 07:59:00,57.7,54.0,30.17,SSE,155,1.0,1.0,87,0.00,,,0.00,meteohub,2013-09-21 12:59:00,
2013-09-21 08:04:00,57.9,53.8,30.17,ESE,115,1.0,2.0,86,0.00,,,0.00,meteohub,2013-09-21 13:04:00,
2013-09-21 08:09:00,58.1,53.6,30.17,ESE,119,2.0,2.0,85,0.00,,,0.00,meteohub,2013-09-21 13:09:00,
2013-09-21 08:14:00,57.9,53.4,30.17,ESE,115,1.0,2.0,85,0.00,,,0.00,meteohub,2013-09-21 13:14:00,
2013-09-21 08:19:00,58.3,53.8,30.17,ESE,121,0.0,2.0,85,0.00,,,0.00,meteohub,2013-09-21 13:19:00,
2013-09-21 08:24:00,59.4,54.5,30.17,SE,140,0.0,2.0,84,0.00,,,0.00,meteohub,2013-09-21 13:24:00,
2013-09-21 08:29:00,60.4,54.5,30.17,SE,131,0.0,2.0,81,0.00,,,0.00,meteohub,2013-09-21 13:29:00,
2013-09-21 08:34:00,60.4,54.3,30.17,SE,139,1.0,1.0,80,0.00,,,0.00,meteohub,2013-09-21 13:34:00,
2013-09-21 08:39:00,61.0,54.7,30.17,SSE,150,0.0,2.0,80,0.00,,,0.00,meteohub,2013-09-21 13:39:00,
2013-09-21 08:44:00,61.9,55.2,30.17,South,180,0.0,2.0,79,0.00,,,0.00,meteohub,2013-09-21 13:44:00,
2013-09-21 08:49:00,63.1,55.4,30.16,SSE,149,0.0,2.0,76,0.00,,,0.00,meteohub,2013-09-21 13:49:00,
2013-09-21 08:54:00,63.7,55.2,30.16,SSE,153,0.0,0.0,74,0.00,,,0.00,meteohub,2013-09-21 13:54:00,
2013-09-21 08:59:00,64.2,55.8,30.17,SSE,153,0.0,0.0,74,0.00,,,0.00,meteohub,2013-09-21 13:59:00,
2013-09-21 09:04:00,65.5,56.7,30.17,SSE,152,0.0,0.0,73,0.00,,,0.00,meteohub,2013-09-21 14:04:00,
2013-09-21 09:09:00,66.6,56.1,30.17,SSE,152,0.0,0.0,69,0.00,,,0.00,meteohub,2013-09-21 14:09:00,
2013-09-21 09:14:00,67.1,55.8,30.17,SE,135,0.0,0.0,67,0.00,,,0.00,meteohub,2013-09-21 14:14:00,
2013-09-21 09:19:00,66.0,55.2,30.17,ESE,111,0.0,0.0,68,0.00,,,0.00,meteohub,2013-09-21 14:19:00,
2013-09-21 09:24:00,66.4,55.9,30.17,ESE,118,0.0,0.0,69,0.00,,,0.00,meteohub,2013-09-21 14:24:00,
2013-09-21 09:29:00,66.4,56.3,30.17,SE,139,0.0,0.0,70,0.00,,,0.00,meteohub,2013-09-21 14:29:00,
2013-09-21 09:34:00,66.6,55.6,30.17,SW,222,0.0,0.0,68,0.00,,,0.00,meteohub,2013-09-21 14:34:00,
2013-09-21 09:39:00,66.4,55.6,30.17,SE,135,0.0,2.0,68,0.00,,,0.00,meteohub,2013-09-21 14:39:00,
2013-09-21 09:44:00,67.3,55.0,30.17,SE,132,1.0,3.0,65,0.00,,,0.00,meteohub,2013-09-21 14:44:00,
2013-09-21 09:49:00,68.0,54.9,30.17,SSE,167,0.0,3.0,63,0.00,,,0.00,meteohub,2013-09-21 14:49:00,
2013-09-21 09:54:00,67.8,54.0,30.17,SE,131,1.0,3.0,61,0.00,,,0.00,meteohub,2013-09-21 14:54:00,
2013-09-21 09:59:00,68.2,54.7,30.17,SE,145,0.0,3.0,62,0.00,,,0.00,meteohub,2013-09-21 14:59:00,
2013-09-21 10:04:00,69.3,54.9,30.17,East,88,2.0,3.0,60,0.00,,,0.00,meteohub,2013-09-21 15:04:00,
2013-09-21 10:09:00,69.4,54.5,30.17,SSE,155,0.0,3.0,59,0.00,,,0.00,meteohub,2013-09-21 15:09:00,
2013-09-21 10:14:00,69.3,53.8,30.17,SE,131,0.0,3.0,58,0.00,,,0.00,meteohub,2013-09-21 15:14:00,
2013-09-21 10:19:00,70.2,54.1,30.17,SSE,155,1.0,3.0,57,0.00,,,0.00,meteohub,2013-09-21 15:19:00,
2013-09-21 10:24:00,71.1,54.5,30.17,SW,221,2.0,3.0,56,0.00,,,0.00,meteohub,2013-09-21 15:24:00,
2013-09-21 10:29:00,71.1,55.0,30.17,ESE,122,2.0,3.0,57,0.00,,,0.00,meteohub,2013-09-21 15:29:00,
2013-09-21 10:34:00,70.9,54.3,30.17,SE,146,2.0,4.0,56,0.00,,,0.00,meteohub,2013-09-21 15:34:00,
2013-09-21 10:39:00,71.6,54.5,30.17,South,190,1.0,4.0,55,0.00,,,0.00,meteohub,2013-09-21 15:39:00,
2013-09-21 10:44:00,71.2,53.8,30.17,East,99,0.0,4.0,54,0.00,,,0.00,meteohub,2013-09-21 15:44:00,
2013-09-21 10:50:00,71.4,52.9,30.17,ESE,119,2.0,4.0,52,0.00,,,0.00,meteohub,2013-09-21 15:50:00,
2013-09-21 10:55:00,71.6,53.1,30.17,ESE,108,2.0,4.0,52,0.00,,,0.00,meteohub,2013-09-21 15:55:00,
2013-09-21 11:00:00,71.4,52.9,30.16,ESE,111,3.0,4.0,52,0.00,,,0.00,meteohub,2013-09-21 16:00:00,
2013-09-21 11:05:00,72.3,54.1,30.16,East,100,4.0,4.0,53,0.00,,,0.00,meteohub,2013-09-21 16:05:00,
2013-09-21 11:10:00,72.7,52.9,30.16,South,181,2.0,4.0,50,0.00,,,0.00,meteohub,2013-09-21 16:10:00,
2013-09-21 11:15:00,72.9,53.1,30.16,SW,225,3.0,4.0,50,0.00,,,0.00,meteohub,2013-09-21 16:15:00,
2013-09-21 11:20:00,73.0,53.2,30.16,South,186,2.0,5.0,50,0.00,,,0.00,meteohub,2013-09-21 16:20:00,
2013-09-21 11:25:00,73.8,52.3,30.16,SE,128,2.0,5.0,47,0.00,,,0.00,meteohub,2013-09-21 16:25:00,
2013-09-21 11:30:00,74.5,52.9,30.16,SSE,166,3.0,6.0,47,0.00,,,0.00,meteohub,2013-09-21 16:30:00,
2013-09-21 11:35:00,73.8,53.4,30.15,SSE,166,4.0,6.0,49,0.00,,,0.00,meteohub,2013-09-21 16:35:00,
2013-09-21 11:40:00,73.8,52.9,30.15,WSW,245,6.0,6.0,48,0.00,,,0.00,meteohub,2013-09-21 16:40:00,
2013-09-21 11:45:00,74.1,53.8,30.15,South,170,4.0,8.0,49,0.00,,,0.00,meteohub,2013-09-21 16:45:00,
2013-09-21 11:50:00,74.1,54.3,30.15,SSW,210,1.0,8.0,50,0.00,,,0.00,meteohub,2013-09-21 16:50:00,
2013-09-21 11:55:00,75.0,53.4,30.16,SSW,210,1.0,8.0,47,0.00,,,0.00,meteohub,2013-09-21 16:55:00,
2013-09-21 12:00:00,75.0,52.9,30.15,SE,135,2.0,7.0,46,0.00,,,0.00,meteohub,2013-09-21 17:00:00,
2013-09-21 12:05:00,75.4,53.8,30.15,SW,218,5.0,6.0,47,0.00,,,0.00,meteohub,2013-09-21 17:05:00,
2013-09-21 12:10:00,74.8,53.8,30.15,SSW,194,6.0,6.0,48,0.00,,,0.00,meteohub,2013-09-21 17:10:00,
2013-09-21 12:16:00,75.0,54.0,30.14,SW,218,4.0,6.0,48,0.00,,,0.00,meteohub,2013-09-21 17:16:00,
2013-09-21 12:21:00,75.4,53.2,30.14,ESE,115,6.0,8.0,46,0.00,,,0.00,meteohub,2013-09-21 17:21:00,
2013-09-21 12:26:00,75.7,53.4,30.14,SE,134,2.0,8.0,46,0.00,,,0.00,meteohub,2013-09-21 17:26:00,
2013-09-21 12:31:00,75.9,53.1,30.14,SE,135,5.0,8.0,45,0.00,,,0.00,meteohub,2013-09-21 17:31:00,
2013-09-21 12:36:00,75.7,52.9,30.14,SW,215,4.0,8.0,45,0.00,,,0.00,meteohub,2013-09-21 17:36:00,
2013-09-21 12:41:00,76.1,53.2,30.13,SSE,147,3.0,8.0,45,0.00,,,0.00,meteohub,2013-09-21 17:41:00,
2013-09-21 12:46:00,76.3,52.7,30.13,East,94,7.0,8.0,44,0.00,,,0.00,meteohub,2013-09-21 17:46:00,
2013-09-21 12:51:00,75.4,52.0,30.13,SE,124,4.0,8.0,44,0.00,,,0.00,meteohub,2013-09-21 17:51:00,
2013-09-21 12:56:00,75.7,53.4,30.13,SE,138,2.0,8.0,46,0.00,,,0.00,meteohub,2013-09-21 17:56:00,
2013-09-21 13:01:00,76.5,52.9,30.13,WSW,239,6.0,8.0,44,0.00,,,0.00,meteohub,2013-09-21 18:01:00,
2013-09-21 13:06:00,76.3,52.2,30.12,South,191,2.0,8.0,43,0.00,,,0.00,meteohub,2013-09-21 18:06:00,
2013-09-21 13:11:00,76.6,52.5,30.12,SW,214,3.0,8.0,43,0.00,,,0.00,meteohub,2013-09-21 18:11:00,
2013-09-21 13:16:00,76.8,52.7,30.12,SE,127,1.0,8.0,43,0.00,,,0.00,meteohub,2013-09-21 18:16:00,
2013-09-21 13:21:00,77.4,51.8,30.12,SE,145,5.0,8.0,41,0.00,,,0.00,meteohub,2013-09-21 18:21:00,
2013-09-21 13:26:00,77.5,52.7,30.12,SW,236,1.0,7.0,42,0.00,,,0.00,meteohub,2013-09-21 18:26:00,
2013-09-21 13:31:00,77.7,52.9,30.12,SE,127,7.0,7.0,42,0.00,,,0.00,meteohub,2013-09-21 18:31:00,
2013-09-21 13:36:00,77.5,52.0,30.12,WSW,239,9.0,9.0,41,0.00,,,0.00,meteohub,2013-09-21 18:36:00,
2013-09-21 13:41:00,77.5,52.7,30.12,SE,146,2.0,9.0,42,0.00,,,0.00,meteohub,2013-09-21 18:41:00,
2013-09-21 13:46:00,78.1,52.5,30.11,ESE,121,4.0,9.0,41,0.00,,,0.00,meteohub,2013-09-21 18:46:00,
2013-09-21 13:51:00,78.1,52.5,30.11,South,179,2.0,9.0,41,0.00,,,0.00,meteohub,2013-09-21 18:51:00,
2013-09-21 13:56:00,78.3,52.0,30.11,SW,214,1.0,7.0,40,0.00,,,0.00,meteohub,2013-09-21 18:56:00,
2013-09-21 14:01:00,78.6,52.9,30.10,SSE,162,6.0,7.0,41,0.00,,,0.00,meteohub,2013-09-21 19:01:00,
2013-09-21 14:06:00,78.6,54.3,30.10,SSE,153,2.0,10.0,43,0.00,,,0.00,meteohub,2013-09-21 19:06:00,
2013-09-21 14:11:00,79.0,53.2,30.10,SE,129,7.0,10.0,41,0.00,,,0.00,meteohub,2013-09-21 19:11:00,
2013-09-21 14:16:00,78.6,52.9,30.10,South,188,3.0,12.0,41,0.00,,,0.00,meteohub,2013-09-21 19:16:00,
2013-09-21 14:21:00,78.4,52.2,30.10,SW,224,8.0,12.0,40,0.00,,,0.00,meteohub,2013-09-21 19:21:00,
2013-09-21 14:26:00,77.9,53.6,30.09,South,169,2.0,9.0,43,0.00,,,0.00,meteohub,2013-09-21 19:26:00,
2013-09-21 14:31:00,78.3,52.7,30.09,SSE,161,4.0,9.0,41,0.00,,,0.00,meteohub,2013-09-21 19:31:00,
2013-09-21 14:36:00,78.8,53.1,30.09,SE,133,4.0,9.0,41,0.00,,,0.00,meteohub,2013-09-21 19:36:00,
2013-09-21 14:41:00,79.0,52.5,30.09,WSW,246,3.0,11.0,40,0.00,,,0.00,meteohub,2013-09-21 19:41:00,
2013-09-21 14:46:00,78.6,52.9,30.09,SW,225,5.0,11.0,41,0.00,,,0.00,meteohub,2013-09-21 19:46:00,
2013-09-21 14:51:00,78.4,52.7,30.09,SW,225,8.0,12.0,41,0.00,,,0.00,meteohub,2013-09-21 19:51:00,
2013-09-21 14:56:00,79.0,53.2,30.08,SW,223,6.0,14.0,41,0.00,,,0.00,meteohub,2013-09-21 19:56:00,
2013-09-21 15:01:00,78.6,52.9,30.08,SW,233,3.0,14.0,41,0.00,,,0.00,meteohub,2013-09-21 20:01:00,
2013-09-21 15:06:00,78.4,53.4,30.08,West,275,2.0,15.0,42,0.00,,,0.00,meteohub,2013-09-21 20:06:00,
2013-09-21 15:11:00,78.8,53.1,30.08,WSW,243,9.0,15.0,41,0.00,,,0.00,meteohub,2013-09-21 20:11:00,
2013-09-21 15:16:00,78.6,52.9,30.07,SW,231,0.0,15.0,41,0.00,,,0.00,meteohub,2013-09-21 20:16:00,
2013-09-21 15:22:00,79.0,52.0,30.07,SW,224,9.0,13.0,39,0.00,,,0.00,meteohub,2013-09-21 20:22:00,
2013-09-21 15:26:00,79.2,52.7,30.07,SSW,205,4.0,13.0,40,0.00,,,0.00,meteohub,2013-09-21 20:26:00,
2013-09-21 15:32:00,79.5,52.3,30.07,SW,219,8.0,13.0,39,0.00,,,0.00,meteohub,2013-09-21 20:32:00,
2013-09-21 15:37:00,79.5,53.8,30.07,WSW,239,3.0,11.0,41,0.00,,,0.00,meteohub,2013-09-21 20:37:00,
2013-09-21 15:42:00,79.5,53.1,30.06,South,178,2.0,11.0,40,0.00,,,0.00,meteohub,2013-09-21 20:42:00,
2013-09-21 15:47:00,79.5,53.1,30.06,SW,214,6.0,11.0,40,0.00,,,0.00,meteohub,2013-09-21 20:47:00,
2013-09-21 15:52:00,80.1,53.6,30.06,SW,236,3.0,16.0,40,0.00,,,0.00,meteohub,2013-09-21 20:52:00,
2013-09-21 15:56:00,79.5,53.8,30.06,SE,134,4.0,16.0,41,0.00,,,0.00,meteohub,2013-09-21 20:56:00,
2013-09-21 16:02:00,80.1,53.6,30.05,SW,228,3.0,10.0,40,0.00,,,0.00,meteohub,2013-09-21 21:02:00,
2013-09-21 16:07:00,80.2,53.8,30.05,West,270,5.0,9.0,40,0.00,,,0.00,meteohub,2013-09-21 21:07:00,
2013-09-21 16:12:00,79.7,54.0,30.05,SSW,210,3.0,14.0,41,0.00,,,0.00,meteohub,2013-09-21 21:12:00,
2013-09-21 16:17:00,79.7,53.2,30.05,SSW,208,2.0,14.0,40,0.00,,,0.00,meteohub,2013-09-21 21:17:00,
2013-09-21 16:22:00,79.9,54.1,30.05,SW,218,2.0,14.0,41,0.00,,,0.00,meteohub,2013-09-21 21:22:00,
2013-09-21 16:27:00,80.4,54.5,30.05,SSE,159,2.0,11.0,41,0.00,,,0.00,meteohub,2013-09-21 21:27:00,
2013-09-21 16:32:00,80.4,54.0,30.05,SW,231,9.0,10.0,40,0.00,,,0.00,meteohub,2013-09-21 21:32:00,
2013-09-21 16:37:00,80.6,54.0,30.04,WSW,245,6.0,12.0,40,0.00,,,0.00,meteohub,2013-09-21 21:37:00,
2013-09-21 16:42:00,80.8,54.1,30.04,SE,139,3.0,12.0,40,0.00,,,0.00,meteohub,2013-09-21 21:42:00,
2013-09-21 16:47:00,80.4,54.0,30.04,SE,127,3.0,12.0,40,0.00,,,0.00,meteohub,2013-09-21 21:47:00,
2013-09-21 16:52:00,81.0,53.6,30.04,SSW,200,2.0,10.0,39,0.00,,,0.00,meteohub,2013-09-21 21:52:00,
2013-09-21 16:57:00,80.8,52.9,30.04,SSW,198,4.0,8.0,38,0.00,,,0.00,meteohub,2013-09-21 21:57:00,
2013-09-21 17:02:00,80.8,52.9,30.04,SW,221,2.0,7.0,38,0.00,,,0.00,meteohub,2013-09-21 22:02:00,
2013-09-21 17:07:00,80.4,54.0,30.04,SSW,205,3.0,9.0,40,0.00,,,0.00,meteohub,2013-09-21 22:07:00,
2013-09-21 17:12:00,80.1,53.6,30.04,SW,229,5.0,10.0,40,0.00,,,0.00,meteohub,2013-09-21 22:12:00,
2013-09-21 17:17:00,80.1,54.3,30.04,SW,214,2.0,12.0,41,0.00,,,0.00,meteohub,2013-09-21 22:17:00,
2013-09-21 17:22:00,80.8,53.6,30.03,SSW,198,4.0,12.0,39,0.00,,,0.00,meteohub,2013-09-21 22:22:00,
2013-09-21 17:27:00,81.0,53.6,30.03,SSW,205,2.0,11.0,39,0.00,,,0.00,meteohub,2013-09-21 22:27:00,
2013-09-21 17:32:00,81.1,53.8,30.03,SW,219,2.0,7.0,39,0.00,,,0.00,meteohub,2013-09-21 22:32:00,
2013-09-21 17:37:00,81.0,52.9,30.03,SSE,150,3.0,9.0,38,0.00,,,0.00,meteohub,2013-09-21 22:37:00,
2013-09-21 17:42:00,80.8,53.6,30.03,South,179,3.0,9.0,39,0.00,,,0.00,meteohub,2013-09-21 22:42:00,
2013-09-21 17:47:00,80.8,52.9,30.03,SSE,161,5.0,9.0,38,0.00,,,0.00,meteohub,2013-09-21 22:47:00,
2013-09-21 17:52:00,80.6,53.4,30.03,SSE,151,3.0,9.0,39,0.00,,,0.00,meteohub,2013-09-21 22:52:00,
2013-09-21 17:57:00,80.8,52.9,30.03,South,170,4.0,9.0,38,0.00,,,0.00,meteohub,2013-09-21 22:57:00,
2013-09-21 18:02:00,80.4,52.5,30.03,SW,221,4.0,9.0,38,0.00,,,0.00,meteohub,2013-09-21 23:02:00,
2013-09-21 18:07:00,80.2,53.1,30.03,South,173,3.0,9.0,39,0.00,,,0.00,meteohub,2013-09-21 23:07:00,
2013-09-21 18:12:00,80.2,52.3,30.02,SW,229,3.0,9.0,38,0.00,,,0.00,meteohub,2013-09-21 23:12:00,
2013-09-21 18:17:00,80.4,53.2,30.02,SSE,159,2.0,9.0,39,0.00,,,0.00,meteohub,2013-09-21 23:17:00,
2013-09-21 18:22:00,80.4,52.5,30.02,SE,142,3.0,8.0,38,0.00,,,0.00,meteohub,2013-09-21 23:22:00,
2013-09-21 18:27:00,80.2,53.1,30.02,SW,236,4.0,7.0,39,0.00,,,0.00,meteohub,2013-09-21 23:27:00,
2013-09-21 18:32:00,80.2,53.8,30.02,SSE,166,2.0,9.0,40,0.00,,,0.00,meteohub,2013-09-21 23:32:00,
2013-09-21 18:37:00,80.2,53.1,30.02,SSW,208,1.0,9.0,39,0.00,,,0.00,meteohub,2013-09-21 23:37:00,
2013-09-21 18:43:00,80.2,53.1,30.02,SSW,203,3.0,8.0,39,0.00,,,0.00,meteohub,2013-09-21 23:43:00,
2013-09-21 18:48:00,80.1,53.6,30.02,SSW,194,3.0,6.0,40,0.00,,,0.00,meteohub,2013-09-21 23:48:00,
2013-09-21 18:53:00,79.7,54.0,30.02,SE,134,2.0,6.0,41,0.00,,,0.00,meteohub,2013-09-21 23:53:00,
2013-09-21 18:58:00,79.5,53.8,30.02,South,183,4.0,7.0,41,0.00,,,0.00,meteohub,2013-09-21 23:58:00,
2013-09-21 19:03:00,79.3,54.3,30.02,SE,131,2.0,7.0,42,0.00,,,0.00,meteohub,2013-09-22 00:03:00,
2013-09-21 19:08:00,79.2,54.7,30.02,SW,235,1.0,6.0,43,0.00,,,0.00,meteohub,2013-09-22 00:08:00,
2013-09-21 19:13:00,78.6,54.9,30.02,SSW,209,1.0,5.0,44,0.00,,,0.00,meteohub,2013-09-22 00:13:00,
2013-09-21 19:18:00,78.1,54.3,30.02,SSE,161,1.0,6.0,44,0.00,,,0.00,meteohub,2013-09-22 00:18:00,
2013-09-21 19:23:00,77.4,55.0,30.02,SE,134,1.0,6.0,46,0.00,,,0.00,meteohub,2013-09-22 00:23:00,
2013-09-21 19:28:00,76.6,54.9,30.02,SW,214,2.0,6.0,47,0.00,,,0.00,meteohub,2013-09-22 00:28:00,
2013-09-21 19:33:00,75.9,54.9,30.02,SE,139,1.0,5.0,48,0.00,,,0.00,meteohub,2013-09-22 00:33:00,
2013-09-21 19:38:00,75.6,55.0,30.02,SW,233,0.0,5.0,49,0.00,,,0.00,meteohub,2013-09-22 00:38:00,
2013-09-21 19:43:00,75.0,55.0,30.02,South,175,2.0,4.0,50,0.00,,,0.00,meteohub,2013-09-22 00:43:00,
2013-09-21 19:48:00,74.7,55.4,30.02,South,174,1.0,4.0,51,0.00,,,0.00,meteohub,2013-09-22 00:48:00,
2013-09-21 19:53:00,74.1,55.9,30.02,SSE,149,1.0,5.0,53,0.00,,,0.00,meteohub,2013-09-22 00:53:00,
2013-09-21 19:58:00,73.8,55.6,30.02,SSE,167,1.0,5.0,53,0.00,,,0.00,meteohub,2013-09-22 00:58:00,
2013-09-21 20:03:00,73.6,55.4,30.02,South,169,5.0,5.0,53,0.00,,,0.00,meteohub,2013-09-22 01:03:00,
2013-09-21 20:08:00,73.4,55.2,30.02,SE,145,6.0,6.0,53,0.00,,,0.00,meteohub,2013-09-22 01:08:00,
2013-09-21 20:13:00,73.2,55.0,30.02,SE,132,2.0,6.0,53,0.00,,,0.00,meteohub,2013-09-22 01:13:00,
2013-09-21 20:19:00,72.9,55.2,30.02,SE,134,4.0,6.0,54,0.00,,,0.00,meteohub,2013-09-22 01:19:00,
2013-09-21 20:24:00,72.7,55.0,30.02,SSW,203,3.0,6.0,54,0.00,,,0.00,meteohub,2013-09-22 01:24:00,
2013-09-21 20:30:00,72.3,55.2,30.03,SSE,167,4.0,5.0,55,0.00,,,0.00,meteohub,2013-09-22 01:30:00,
2013-09-21 20:35:00,72.1,55.6,30.03,SE,142,2.0,5.0,56,0.00,,,0.00,meteohub,2013-09-22 01:35:00,
2013-09-21 20:40:00,72.0,55.4,30.03,East,82,6.0,6.0,56,0.00,,,0.00,meteohub,2013-09-22 01:40:00,
2013-09-21 20:45:00,71.8,55.8,30.03,SE,139,2.0,7.0,57,0.00,,,0.00,meteohub,2013-09-22 01:45:00,
2013-09-21 20:50:00,71.8,55.8,30.03,SE,131,1.0,7.0,57,0.00,,,0.00,meteohub,2013-09-22 01:50:00,
2013-09-21 20:55:00,71.4,55.4,30.03,SSE,160,8.0,8.0,57,0.00,,,0.00,meteohub,2013-09-22 01:55:00,
2013-09-21 21:00:00,71.4,55.4,30.03,SE,142,5.0,7.0,57,0.00,,,0.00,meteohub,2013-09-22 02:00:00,
2013-09-21 21:05:00,71.2,55.2,30.03,South,183,6.0,8.0,57,0.00,,,0.00,meteohub,2013-09-22 02:05:00,
2013-09-21 21:10:00,71.1,55.0,30.04,SSE,158,5.0,8.0,57,0.00,,,0.00,meteohub,2013-09-22 02:10:00,
2013-09-21 21:15:00,70.9,55.4,30.04,South,170,2.0,8.0,58,0.00,,,0.00,meteohub,2013-09-22 02:15:00,
2013-09-21 21:20:00,70.7,55.2,30.04,SE,124,3.0,8.0,58,0.00,,,0.00,meteohub,2013-09-22 02:20:00,
2013-09-21 21:25:00,70.3,55.4,30.04,SSE,147,3.0,8.0,59,0.00,,,0.00,meteohub,2013-09-22 02:25:00,
2013-09-21 21:30:00,70.2,55.2,30.04,SSE,149,2.0,8.0,59,0.00,,,0.00,meteohub,2013-09-22 02:30:00,
2013-09-21 21:35:00,70.0,55.0,30.04,ESE,113,3.0,7.0,59,0.00,,,0.00,meteohub,2013-09-22 02:35:00,
2013-09-21 21:40:00,69.6,55.0,30.04,SE,137,6.0,10.0,60,0.00,,,0.00,meteohub,2013-09-22 02:40:00,
2013-09-21 21:45:00,69.4,55.4,30.04,South,176,4.0,10.0,61,0.00,,,0.00,meteohub,2013-09-22 02:45:00,
2013-09-21 21:50:00,69.3,55.2,30.04,SE,146,4.0,8.0,61,0.00,,,0.00,meteohub,2013-09-22 02:50:00,
2013-09-21 21:55:00,69.1,55.0,30.04,South,169,4.0,8.0,61,0.00,,,0.00,meteohub,2013-09-22 02:55:00,
2013-09-21 22:00:00,68.9,54.9,30.04,SSE,149,2.0,7.0,61,0.00,,,0.00,meteohub,2013-09-22 03:00:00,
2013-09-21 22:05:00,68.9,54.9,30.04,SSE,167,6.0,8.0,61,0.00,,,0.00,meteohub,2013-09-22 03:05:00,
2013-09-21 22:10:00,68.7,55.2,30.04,SE,132,3.0,8.0,62,0.00,,,0.00,meteohub,2013-09-22 03:10:00,
2013-09-21 22:15:00,68.5,55.0,30.05,South,174,4.0,8.0,62,0.00,,,0.00,meteohub,2013-09-22 03:15:00,
2013-09-21 22:20:00,68.4,54.9,30.05,SE,136,4.0,8.0,62,0.00,,,0.00,meteohub,2013-09-22 03:20:00,
2013-09-21 22:25:00,68.2,55.0,30.05,SE,132,3.0,7.0,63,0.00,,,0.00,meteohub,2013-09-22 03:25:00,
2013-09-21 22:30:00,67.8,55.2,30.05,ESE,106,3.0,7.0,64,0.00,,,0.00,meteohub,2013-09-22 03:30:00,
2013-09-21 22:35:00,67.5,55.2,30.05,SSE,158,4.0,7.0,65,0.00,,,0.00,meteohub,2013-09-22 03:35:00,
2013-09-21 22:40:00,67.3,55.6,30.05,ESE,116,4.0,7.0,66,0.00,,,0.00,meteohub,2013-09-22 03:40:00,
2013-09-21 22:45:00,66.9,55.2,30.05,ESE,122,4.0,7.0,66,0.00,,,0.00,meteohub,2013-09-22 03:45:00,
2013-09-21 22:50:00,66.7,55.0,30.05,South,172,3.0,7.0,66,0.00,,,0.00,meteohub,2013-09-22 03:50:00,
2013-09-21 22:55:00,66.6,55.2,30.05,SE,129,2.0,6.0,67,0.00,,,0.00,meteohub,2013-09-22 03:55:00,
2013-09-21 23:00:00,66.4,55.6,30.05,SE,127,3.0,7.0,68,0.00,,,0.00,meteohub,2013-09-22 04:00:00,
2013-09-21 23:01:00,66.4,55.6,30.05,ESE,115,4.0,7.0,68,0.00,,,0.00,meteohub,2013-09-22 04:01:00,
2013-09-21 23:02:00,66.4,55.6,30.05,SE,134,4.0,7.0,68,0.00,,,0.00,meteohub,2013-09-22 04:02:00,
2013-09-21 23:07:00,66.0,55.6,30.05,ESE,108,4.0,8.0,69,0.00,,,0.00,meteohub,2013-09-22 04:07:00,
2013-09-21 23:12:00,65.8,55.4,30.05,SE,130,3.0,8.0,69,0.00,,,0.00,meteohub,2013-09-22 04:12:00,
2013-09-21 23:17:00,65.8,55.8,30.05,ESE,108,6.0,9.0,70,0.00,,,0.00,meteohub,2013-09-22 04:17:00,
2013-09-21 23:22:00,65.8,55.8,30.05,ESE,118,4.0,9.0,70,0.00,,,0.00,meteohub,2013-09-22 04:22:00,
2013-09-21 23:27:00,65.7,55.6,30.05,East,101,5.0,9.0,70,0.00,,,0.00,meteohub,2013-09-22 04:27:00,
2013-09-21 23:32:00,65.5,55.8,30.05,SE,127,5.0,8.0,71,0.00,,,0.00,meteohub,2013-09-22 04:32:00,
2013-09-21 23:37:00,65.5,55.8,30.05,ESE,106,4.0,8.0,71,0.00,,,0.00,meteohub,2013-09-22 04:37:00,
2013-09-21 23:42:00,65.1,55.4,30.05,SSE,148,1.0,6.0,71,0.00,,,0.00,meteohub,2013-09-22 04:42:00,
2013-09-21 23:46:00,64.9,55.8,30.05,SE,139,3.0,7.0,72,0.00,,,0.00,meteohub,2013-09-22 04:46:00,
2013-09-21 23:52:00,64.9,55.8,30.05,SE,127,3.0,7.0,72,0.00,,,0.00,meteohub,2013-09-22 04:52:00,
2013-09-21 23:57:00,64.8,55.6,30.05,SSE,162,3.0,7.0,72,0.00,,,0.00,meteohub,2013-09-22 04:57:00,